sensor_id;sensor_type;location;lat;lon;timestamp;P1;durP1;ratioP1;P2;durP2;ratioP2
54835;SDS011;43486;43.574;1.476;2022-09-21T00:02:13;8.95;;;1.70;;
54835;SDS011;43486;43.574;1.476;2022-09-21T00:04:38;4.00;;;1.67;;
54835;SDS011;43486;43.574;1.476;2022-09-21T00:07:03;1.63;;;1.13;;
54835;SDS011;43486;43.574;1.476;2022-09-21T00:09:29;4.10;;;1.98;;
54835;SDS011;43486;43.574;1.476;2022-09-21T00:11:54;3.90;;;1.45;;
54835;SDS011;43486;43.574;1.476;2022-09-21T00:14:20;3.88;;;1.63;;
54835;SDS011;43486;43.574;1.476;2022-09-21T00:16:45;4.38;;;1.35;;
54835;SDS011;43486;43.574;1.476;2022-09-21T00:19:10;2.97;;;1.23;;
54835;SDS011;43486;43.574;1.476;2022-09-21T00:21:36;1.67;;;1.00;;
54835;SDS011;43486;43.574;1.476;2022-09-21T00:24:02;2.65;;;1.58;;
54835;SDS011;43486;43.574;1.476;2022-09-21T00:26:28;3.33;;;1.58;;
54835;SDS011;43486;43.574;1.476;2022-09-21T00:28:55;2.05;;;1.27;;
54835;SDS011;43486;43.574;1.476;2022-09-21T00:31:22;2.78;;;1.38;;
54835;SDS011;43486;43.574;1.476;2022-09-21T00:33:48;2.97;;;1.20;;
54835;SDS011;43486;43.574;1.476;2022-09-21T00:36:15;2.50;;;1.45;;
54835;SDS011;43486;43.574;1.476;2022-09-21T00:38:42;3.13;;;1.35;;
54835;SDS011;43486;43.574;1.476;2022-09-21T00:41:09;4.22;;;1.50;;
54835;SDS011;43486;43.574;1.476;2022-09-21T00:43:35;2.83;;;1.60;;
54835;SDS011;43486;43.574;1.476;2022-09-21T00:46:04;1.95;;;1.15;;
54835;SDS011;43486;43.574;1.476;2022-09-21T00:48:31;2.15;;;1.10;;
54835;SDS011;43486;43.574;1.476;2022-09-21T00:50:59;6.75;;;1.88;;
54835;SDS011;43486;43.574;1.476;2022-09-21T00:53:28;3.05;;;1.73;;
54835;SDS011;43486;43.574;1.476;2022-09-21T00:55:54;2.70;;;1.25;;
54835;SDS011;43486;43.574;1.476;2022-09-21T00:58:22;1.90;;;0.98;;
54835;SDS011;43486;43.574;1.476;2022-09-21T01:00:51;3.55;;;1.13;;
54835;SDS011;43486;43.574;1.476;2022-09-21T01:03:17;3.47;;;1.40;;
54835;SDS011;43486;43.574;1.476;2022-09-21T01:05:43;3.30;;;1.27;;
54835;SDS011;43486;43.574;1.476;2022-09-21T01:08:09;2.47;;;1.20;;
54835;SDS011;43486;43.574;1.476;2022-09-21T01:16:17;2.53;;;1.10;;
54835;SDS011;43486;43.574;1.476;2022-09-21T01:18:58;3.70;;;1.30;;
54835;SDS011;43486;43.574;1.476;2022-09-21T01:21:25;2.75;;;1.55;;
54835;SDS011;43486;43.574;1.476;2022-09-21T01:27:11;1.30;;;1.00;;
54835;SDS011;43486;43.574;1.476;2022-09-21T01:29:48;2.42;;;1.20;;
54835;SDS011;43486;43.574;1.476;2022-09-21T01:32:27;1.73;;;0.90;;
54835;SDS011;43486;43.574;1.476;2022-09-21T01:37:42;2.83;;;1.63;;
54835;SDS011;43486;43.574;1.476;2022-09-21T01:40:22;3.00;;;1.20;;
54835;SDS011;43486;43.574;1.476;2022-09-21T01:42:59;1.90;;;1.15;;
54835;SDS011;43486;43.574;1.476;2022-09-21T01:45:30;1.13;;;0.85;;
54835;SDS011;43486;43.574;1.476;2022-09-21T01:47:58;4.60;;;1.52;;
54835;SDS011;43486;43.574;1.476;2022-09-21T01:50:24;2.97;;;1.17;;
54835;SDS011;43486;43.574;1.476;2022-09-21T01:52:54;1.88;;;1.08;;
54835;SDS011;43486;43.574;1.476;2022-09-21T01:55:25;2.13;;;1.23;;
54835;SDS011;43486;43.574;1.476;2022-09-21T02:00:35;1.38;;;1.02;;
54835;SDS011;43486;43.574;1.476;2022-09-21T02:05:53;1.58;;;0.80;;
54835;SDS011;43486;43.574;1.476;2022-09-21T02:08:18;3.88;;;1.35;;
54835;SDS011;43486;43.574;1.476;2022-09-21T02:10:45;6.85;;;1.38;;
54835;SDS011;43486;43.574;1.476;2022-09-21T02:13:14;2.72;;;1.50;;
54835;SDS011;43486;43.574;1.476;2022-09-21T02:16:01;2.40;;;1.10;;
54835;SDS011;43486;43.574;1.476;2022-09-21T02:21:29;4.75;;;1.48;;
54835;SDS011;43486;43.574;1.476;2022-09-21T02:26:32;2.28;;;0.93;;
54835;SDS011;43486;43.574;1.476;2022-09-21T02:29:12;5.88;;;1.60;;
54835;SDS011;43486;43.574;1.476;2022-09-21T02:32:07;1.73;;;0.95;;
54835;SDS011;43486;43.574;1.476;2022-09-21T02:34:37;1.52;;;1.05;;
54835;SDS011;43486;43.574;1.476;2022-09-21T02:37:11;1.45;;;0.75;;
54835;SDS011;43486;43.574;1.476;2022-09-21T02:42:10;1.92;;;1.17;;
54835;SDS011;43486;43.574;1.476;2022-09-21T02:49:48;2.38;;;1.10;;
54835;SDS011;43486;43.574;1.476;2022-09-21T02:52:17;3.13;;;1.05;;
54835;SDS011;43486;43.574;1.476;2022-09-21T02:54:45;3.58;;;1.17;;
54835;SDS011;43486;43.574;1.476;2022-09-21T02:57:13;1.05;;;0.80;;
54835;SDS011;43486;43.574;1.476;2022-09-21T02:59:40;3.22;;;1.08;;
54835;SDS011;43486;43.574;1.476;2022-09-21T03:02:06;2.63;;;1.20;;
54835;SDS011;43486;43.574;1.476;2022-09-21T03:04:33;2.58;;;1.23;;
54835;SDS011;43486;43.574;1.476;2022-09-21T03:06:59;2.72;;;1.17;;
54835;SDS011;43486;43.574;1.476;2022-09-21T03:09:24;1.65;;;0.90;;
54835;SDS011;43486;43.574;1.476;2022-09-21T03:11:50;8.05;;;1.83;;
54835;SDS011;43486;43.574;1.476;2022-09-21T03:14:15;1.77;;;1.42;;
54835;SDS011;43486;43.574;1.476;2022-09-21T03:16:42;0.60;;;0.60;;
54835;SDS011;43486;43.574;1.476;2022-09-21T03:19:08;2.33;;;1.17;;
54835;SDS011;43486;43.574;1.476;2022-09-21T03:21:34;3.42;;;2.05;;
54835;SDS011;43486;43.574;1.476;2022-09-21T03:23:59;3.35;;;1.08;;
54835;SDS011;43486;43.574;1.476;2022-09-21T03:26:25;2.22;;;1.23;;
54835;SDS011;43486;43.574;1.476;2022-09-21T03:28:50;4.97;;;1.20;;
54835;SDS011;43486;43.574;1.476;2022-09-21T03:31:18;2.53;;;1.48;;
54835;SDS011;43486;43.574;1.476;2022-09-21T03:33:44;6.43;;;1.27;;
54835;SDS011;43486;43.574;1.476;2022-09-21T03:36:09;4.32;;;1.25;;
54835;SDS011;43486;43.574;1.476;2022-09-21T03:38:35;1.73;;;1.25;;
54835;SDS011;43486;43.574;1.476;2022-09-21T03:41:01;2.22;;;1.20;;
54835;SDS011;43486;43.574;1.476;2022-09-21T03:43:27;5.05;;;1.25;;
54835;SDS011;43486;43.574;1.476;2022-09-21T03:45:53;1.85;;;1.10;;
54835;SDS011;43486;43.574;1.476;2022-09-21T03:48:18;2.20;;;1.20;;
54835;SDS011;43486;43.574;1.476;2022-09-21T03:50:45;5.13;;;1.20;;
54835;SDS011;43486;43.574;1.476;2022-09-21T03:53:11;2.63;;;0.95;;
54835;SDS011;43486;43.574;1.476;2022-09-21T03:55:36;4.15;;;1.30;;
54835;SDS011;43486;43.574;1.476;2022-09-21T03:58:02;1.15;;;0.85;;
54835;SDS011;43486;43.574;1.476;2022-09-21T04:00:28;2.63;;;1.38;;
54835;SDS011;43486;43.574;1.476;2022-09-21T04:02:53;2.92;;;1.40;;
54835;SDS011;43486;43.574;1.476;2022-09-21T04:05:19;1.95;;;1.00;;
54835;SDS011;43486;43.574;1.476;2022-09-21T04:07:45;2.83;;;1.23;;
54835;SDS011;43486;43.574;1.476;2022-09-21T04:10:11;2.05;;;1.10;;
54835;SDS011;43486;43.574;1.476;2022-09-21T04:12:39;5.72;;;1.35;;
54835;SDS011;43486;43.574;1.476;2022-09-21T04:15:12;3.65;;;1.52;;
54835;SDS011;43486;43.574;1.476;2022-09-21T04:17:39;1.48;;;0.93;;
54835;SDS011;43486;43.574;1.476;2022-09-21T04:20:05;2.05;;;1.27;;
54835;SDS011;43486;43.574;1.476;2022-09-21T04:22:31;2.30;;;1.27;;
54835;SDS011;43486;43.574;1.476;2022-09-21T04:24:56;1.75;;;0.93;;
54835;SDS011;43486;43.574;1.476;2022-09-21T04:27:22;2.13;;;0.95;;
54835;SDS011;43486;43.574;1.476;2022-09-21T04:29:48;7.35;;;1.50;;
54835;SDS011;43486;43.574;1.476;2022-09-21T04:32:13;4.25;;;1.75;;
54835;SDS011;43486;43.574;1.476;2022-09-21T04:34:39;2.42;;;1.48;;
54835;SDS011;43486;43.574;1.476;2022-09-21T04:37:05;3.63;;;1.30;;
54835;SDS011;43486;43.574;1.476;2022-09-21T04:39:34;3.13;;;1.05;;
54835;SDS011;43486;43.574;1.476;2022-09-21T04:42:00;1.98;;;0.93;;
54835;SDS011;43486;43.574;1.476;2022-09-21T04:44:26;1.63;;;1.10;;
54835;SDS011;43486;43.574;1.476;2022-09-21T04:46:52;2.95;;;1.45;;
54835;SDS011;43486;43.574;1.476;2022-09-21T04:49:17;7.85;;;1.40;;
54835;SDS011;43486;43.574;1.476;2022-09-21T04:51:43;0.85;;;0.82;;
54835;SDS011;43486;43.574;1.476;2022-09-21T04:54:08;5.85;;;1.33;;
54835;SDS011;43486;43.574;1.476;2022-09-21T04:56:34;1.85;;;0.80;;
54835;SDS011;43486;43.574;1.476;2022-09-21T04:58:59;3.15;;;1.52;;
54835;SDS011;43486;43.574;1.476;2022-09-21T05:01:25;3.67;;;1.63;;
54835;SDS011;43486;43.574;1.476;2022-09-21T05:03:51;2.25;;;1.23;;
54835;SDS011;43486;43.574;1.476;2022-09-21T05:06:17;1.23;;;0.90;;
54835;SDS011;43486;43.574;1.476;2022-09-21T05:08:42;3.63;;;1.52;;
54835;SDS011;43486;43.574;1.476;2022-09-21T05:11:26;1.83;;;0.90;;
54835;SDS011;43486;43.574;1.476;2022-09-21T05:13:52;2.28;;;1.25;;
54835;SDS011;43486;43.574;1.476;2022-09-21T05:16:17;2.72;;;0.85;;
54835;SDS011;43486;43.574;1.476;2022-09-21T05:18:43;2.15;;;1.10;;
54835;SDS011;43486;43.574;1.476;2022-09-21T05:21:10;1.58;;;0.80;;
54835;SDS011;43486;43.574;1.476;2022-09-21T05:23:36;1.98;;;1.08;;
54835;SDS011;43486;43.574;1.476;2022-09-21T05:26:01;1.70;;;1.13;;
54835;SDS011;43486;43.574;1.476;2022-09-21T05:28:27;2.05;;;1.17;;
54835;SDS011;43486;43.574;1.476;2022-09-21T05:30:56;2.85;;;1.02;;
54835;SDS011;43486;43.574;1.476;2022-09-21T05:33:22;1.67;;;1.02;;
54835;SDS011;43486;43.574;1.476;2022-09-21T05:38:50;6.25;;;1.30;;
54835;SDS011;43486;43.574;1.476;2022-09-21T05:41:16;1.95;;;0.95;;
54835;SDS011;43486;43.574;1.476;2022-09-21T05:43:41;4.65;;;1.58;;
54835;SDS011;43486;43.574;1.476;2022-09-21T05:46:10;0.70;;;0.70;;
54835;SDS011;43486;43.574;1.476;2022-09-21T05:48:41;2.50;;;1.40;;
54835;SDS011;43486;43.574;1.476;2022-09-21T05:56:59;1.60;;;0.98;;
54835;SDS011;43486;43.574;1.476;2022-09-21T05:59:30;2.50;;;1.50;;
54835;SDS011;43486;43.574;1.476;2022-09-21T06:07:10;0.87;;;0.80;;
54835;SDS011;43486;43.574;1.476;2022-09-21T06:09:35;1.50;;;0.98;;
54835;SDS011;43486;43.574;1.476;2022-09-21T06:12:00;1.77;;;1.08;;
54835;SDS011;43486;43.574;1.476;2022-09-21T06:14:26;2.08;;;1.20;;
54835;SDS011;43486;43.574;1.476;2022-09-21T06:16:52;4.15;;;1.60;;
54835;SDS011;43486;43.574;1.476;2022-09-21T06:19:17;2.17;;;1.13;;
54835;SDS011;43486;43.574;1.476;2022-09-21T06:21:43;4.00;;;1.38;;
54835;SDS011;43486;43.574;1.476;2022-09-21T06:24:08;4.18;;;1.52;;
54835;SDS011;43486;43.574;1.476;2022-09-21T06:26:34;2.75;;;1.33;;
54835;SDS011;43486;43.574;1.476;2022-09-21T06:28:59;3.47;;;2.10;;
54835;SDS011;43486;43.574;1.476;2022-09-21T06:31:25;3.75;;;2.13;;
54835;SDS011;43486;43.574;1.476;2022-09-21T06:33:51;4.60;;;1.65;;
54835;SDS011;43486;43.574;1.476;2022-09-21T06:36:17;6.40;;;1.58;;
54835;SDS011;43486;43.574;1.476;2022-09-21T06:38:42;3.47;;;1.67;;
54835;SDS011;43486;43.574;1.476;2022-09-21T06:41:07;3.40;;;1.60;;
54835;SDS011;43486;43.574;1.476;2022-09-21T06:43:33;3.03;;;1.17;;
54835;SDS011;43486;43.574;1.476;2022-09-21T06:45:59;5.38;;;1.70;;
54835;SDS011;43486;43.574;1.476;2022-09-21T06:48:26;2.72;;;1.27;;
54835;SDS011;43486;43.574;1.476;2022-09-21T06:50:56;13.90;;;2.38;;
54835;SDS011;43486;43.574;1.476;2022-09-21T06:53:23;3.17;;;1.60;;
54835;SDS011;43486;43.574;1.476;2022-09-21T06:55:49;8.27;;;1.95;;
54835;SDS011;43486;43.574;1.476;2022-09-21T06:58:14;5.05;;;1.50;;
54835;SDS011;43486;43.574;1.476;2022-09-21T07:00:40;2.70;;;1.20;;
54835;SDS011;43486;43.574;1.476;2022-09-21T07:03:05;2.08;;;1.20;;
54835;SDS011;43486;43.574;1.476;2022-09-21T07:05:31;5.15;;;1.98;;
54835;SDS011;43486;43.574;1.476;2022-09-21T07:07:58;4.43;;;2.08;;
54835;SDS011;43486;43.574;1.476;2022-09-21T07:10:24;7.50;;;1.95;;
54835;SDS011;43486;43.574;1.476;2022-09-21T07:12:50;3.22;;;1.50;;
54835;SDS011;43486;43.574;1.476;2022-09-21T07:15:16;2.85;;;1.52;;
54835;SDS011;43486;43.574;1.476;2022-09-21T07:17:43;3.65;;;1.65;;
54835;SDS011;43486;43.574;1.476;2022-09-21T07:20:09;4.55;;;1.73;;
54835;SDS011;43486;43.574;1.476;2022-09-21T07:22:34;3.22;;;1.40;;
54835;SDS011;43486;43.574;1.476;2022-09-21T07:25:00;2.88;;;1.27;;
54835;SDS011;43486;43.574;1.476;2022-09-21T07:27:27;4.30;;;1.63;;
54835;SDS011;43486;43.574;1.476;2022-09-21T07:29:53;10.18;;;1.90;;
54835;SDS011;43486;43.574;1.476;2022-09-21T07:32:19;6.65;;;2.08;;
54835;SDS011;43486;43.574;1.476;2022-09-21T07:34:44;3.28;;;1.60;;
54835;SDS011;43486;43.574;1.476;2022-09-21T07:37:10;3.20;;;1.20;;
54835;SDS011;43486;43.574;1.476;2022-09-21T07:39:36;4.40;;;1.92;;
54835;SDS011;43486;43.574;1.476;2022-09-21T07:42:03;5.63;;;2.67;;
54835;SDS011;43486;43.574;1.476;2022-09-21T07:44:29;2.75;;;1.33;;
54835;SDS011;43486;43.574;1.476;2022-09-21T07:46:54;7.60;;;2.30;;
54835;SDS011;43486;43.574;1.476;2022-09-21T07:49:20;13.98;;;1.92;;
54835;SDS011;43486;43.574;1.476;2022-09-21T07:51:45;2.80;;;1.33;;
54835;SDS011;43486;43.574;1.476;2022-09-21T07:54:11;3.92;;;2.08;;
54835;SDS011;43486;43.574;1.476;2022-09-21T07:56:36;3.30;;;1.55;;
54835;SDS011;43486;43.574;1.476;2022-09-21T07:59:02;3.65;;;1.50;;
54835;SDS011;43486;43.574;1.476;2022-09-21T08:01:35;4.88;;;1.80;;
54835;SDS011;43486;43.574;1.476;2022-09-21T08:04:02;3.03;;;1.27;;
54835;SDS011;43486;43.574;1.476;2022-09-21T08:06:29;2.90;;;1.27;;
54835;SDS011;43486;43.574;1.476;2022-09-21T08:08:57;4.05;;;1.65;;
54835;SDS011;43486;43.574;1.476;2022-09-21T08:11:23;2.13;;;1.08;;
54835;SDS011;43486;43.574;1.476;2022-09-21T08:13:53;2.75;;;1.63;;
54835;SDS011;43486;43.574;1.476;2022-09-21T08:16:20;6.93;;;1.73;;
54835;SDS011;43486;43.574;1.476;2022-09-21T08:18:46;3.42;;;1.95;;
54835;SDS011;43486;43.574;1.476;2022-09-21T08:21:11;4.30;;;1.58;;
54835;SDS011;43486;43.574;1.476;2022-09-21T08:23:37;4.22;;;2.17;;
54835;SDS011;43486;43.574;1.476;2022-09-21T08:26:07;5.32;;;1.17;;
54835;SDS011;43486;43.574;1.476;2022-09-21T08:28:34;2.55;;;1.05;;
54835;SDS011;43486;43.574;1.476;2022-09-21T08:31:00;4.95;;;1.65;;
54835;SDS011;43486;43.574;1.476;2022-09-21T08:33:27;5.35;;;1.80;;
54835;SDS011;43486;43.574;1.476;2022-09-21T08:35:53;3.22;;;1.48;;
54835;SDS011;43486;43.574;1.476;2022-09-21T08:38:19;3.47;;;1.60;;
54835;SDS011;43486;43.574;1.476;2022-09-21T08:40:45;3.67;;;2.05;;
54835;SDS011;43486;43.574;1.476;2022-09-21T08:43:12;3.53;;;1.52;;
54835;SDS011;43486;43.574;1.476;2022-09-21T08:45:40;5.07;;;1.60;;
54835;SDS011;43486;43.574;1.476;2022-09-21T08:48:13;4.80;;;1.80;;
54835;SDS011;43486;43.574;1.476;2022-09-21T08:50:49;3.75;;;1.73;;
54835;SDS011;43486;43.574;1.476;2022-09-21T08:55:43;10.65;;;2.15;;
54835;SDS011;43486;43.574;1.476;2022-09-21T08:58:14;4.05;;;1.92;;
54835;SDS011;43486;43.574;1.476;2022-09-21T09:00:46;3.90;;;1.48;;
54835;SDS011;43486;43.574;1.476;2022-09-21T09:03:17;9.15;;;1.50;;
54835;SDS011;43486;43.574;1.476;2022-09-21T09:05:58;12.80;;;2.20;;
54835;SDS011;43486;43.574;1.476;2022-09-21T09:08:31;4.03;;;1.45;;
54835;SDS011;43486;43.574;1.476;2022-09-21T09:22:53;3.70;;;1.77;;
54835;SDS011;43486;43.574;1.476;2022-09-21T09:25:27;8.80;;;1.45;;
54835;SDS011;43486;43.574;1.476;2022-09-21T09:28:00;3.72;;;1.45;;
54835;SDS011;43486;43.574;1.476;2022-09-21T09:30:55;2.20;;;1.35;;
54835;SDS011;43486;43.574;1.476;2022-09-21T09:33:27;8.55;;;1.83;;
54835;SDS011;43486;43.574;1.476;2022-09-21T09:36:02;2.38;;;1.42;;
54835;SDS011;43486;43.574;1.476;2022-09-21T09:38:36;3.95;;;1.67;;
54835;SDS011;43486;43.574;1.476;2022-09-21T09:51:40;5.50;;;1.95;;
54835;SDS011;43486;43.574;1.476;2022-09-21T09:54:11;6.28;;;2.05;;
54835;SDS011;43486;43.574;1.476;2022-09-21T09:56:39;3.42;;;1.48;;
54835;SDS011;43486;43.574;1.476;2022-09-21T09:59:04;5.30;;;1.30;;
54835;SDS011;43486;43.574;1.476;2022-09-21T10:01:37;2.85;;;1.50;;
54835;SDS011;43486;43.574;1.476;2022-09-21T10:04:11;12.02;;;1.55;;
54835;SDS011;43486;43.574;1.476;2022-09-21T10:06:38;4.07;;;1.65;;
54835;SDS011;43486;43.574;1.476;2022-09-21T10:09:17;4.28;;;1.35;;
54835;SDS011;43486;43.574;1.476;2022-09-21T10:11:43;1.38;;;1.13;;
54835;SDS011;43486;43.574;1.476;2022-09-21T10:14:09;5.05;;;1.40;;
54835;SDS011;43486;43.574;1.476;2022-09-21T10:16:41;2.72;;;0.85;;
54835;SDS011;43486;43.574;1.476;2022-09-21T10:19:13;3.83;;;1.80;;
54835;SDS011;43486;43.574;1.476;2022-09-21T10:21:40;2.35;;;0.88;;
54835;SDS011;43486;43.574;1.476;2022-09-21T10:24:19;5.45;;;1.30;;
54835;SDS011;43486;43.574;1.476;2022-09-21T10:26:51;3.00;;;2.00;;
54835;SDS011;43486;43.574;1.476;2022-09-21T10:29:27;3.35;;;1.10;;
54835;SDS011;43486;43.574;1.476;2022-09-21T10:34:28;2.75;;;1.25;;
54835;SDS011;43486;43.574;1.476;2022-09-21T10:36:55;5.57;;;2.00;;
54835;SDS011;43486;43.574;1.476;2022-09-21T10:41:50;4.22;;;1.80;;
54835;SDS011;43486;43.574;1.476;2022-09-21T10:44:20;6.70;;;1.52;;
54835;SDS011;43486;43.574;1.476;2022-09-21T10:46:48;3.90;;;1.83;;
54835;SDS011;43486;43.574;1.476;2022-09-21T10:49:16;2.22;;;1.17;;
54835;SDS011;43486;43.574;1.476;2022-09-21T10:51:45;8.73;;;1.88;;
54835;SDS011;43486;43.574;1.476;2022-09-21T10:54:14;5.45;;;2.53;;
54835;SDS011;43486;43.574;1.476;2022-09-21T10:56:55;11.18;;;2.45;;
54835;SDS011;43486;43.574;1.476;2022-09-21T10:59:25;16.38;;;2.67;;
54835;SDS011;43486;43.574;1.476;2022-09-21T11:07:00;7.65;;;2.50;;
54835;SDS011;43486;43.574;1.476;2022-09-21T11:09:33;3.10;;;1.52;;
54835;SDS011;43486;43.574;1.476;2022-09-21T11:12:05;3.70;;;1.58;;
54835;SDS011;43486;43.574;1.476;2022-09-21T11:17:36;4.57;;;1.70;;
54835;SDS011;43486;43.574;1.476;2022-09-21T11:46:36;17.08;;;1.80;;
54835;SDS011;43486;43.574;1.476;2022-09-21T11:52:09;7.05;;;2.55;;
54835;SDS011;43486;43.574;1.476;2022-09-21T11:54:41;7.90;;;2.15;;
54835;SDS011;43486;43.574;1.476;2022-09-21T11:59:52;9.55;;;2.40;;
54835;SDS011;43486;43.574;1.476;2022-09-21T12:03:06;8.38;;;2.53;;
54835;SDS011;43486;43.574;1.476;2022-09-21T12:05:40;3.50;;;1.50;;
54835;SDS011;43486;43.574;1.476;2022-09-21T12:11:05;3.30;;;1.17;;
54835;SDS011;43486;43.574;1.476;2022-09-21T12:13:55;7.70;;;1.88;;
54835;SDS011;43486;43.574;1.476;2022-09-21T12:16:45;3.92;;;1.67;;
54835;SDS011;43486;43.574;1.476;2022-09-21T12:19:45;7.28;;;1.75;;
54835;SDS011;43486;43.574;1.476;2022-09-21T12:22:21;4.88;;;1.92;;
54835;SDS011;43486;43.574;1.476;2022-09-21T12:24:54;3.35;;;1.55;;
54835;SDS011;43486;43.574;1.476;2022-09-21T12:27:57;6.13;;;1.90;;
54835;SDS011;43486;43.574;1.476;2022-09-21T12:30:21;5.80;;;1.90;;
54835;SDS011;43486;43.574;1.476;2022-09-21T12:35:25;5.60;;;2.67;;
54835;SDS011;43486;43.574;1.476;2022-09-21T12:38:04;9.00;;;2.00;;
54835;SDS011;43486;43.574;1.476;2022-09-21T12:40:37;5.97;;;1.83;;
54835;SDS011;43486;43.574;1.476;2022-09-21T12:43:12;3.53;;;1.90;;
54835;SDS011;43486;43.574;1.476;2022-09-21T12:45:45;3.15;;;1.40;;
54835;SDS011;43486;43.574;1.476;2022-09-21T12:53:17;4.45;;;1.85;;
54835;SDS011;43486;43.574;1.476;2022-09-21T13:04:02;4.22;;;1.52;;
54835;SDS011;43486;43.574;1.476;2022-09-21T13:06:46;5.35;;;1.20;;
54835;SDS011;43486;43.574;1.476;2022-09-21T13:09:33;3.75;;;1.27;;
54835;SDS011;43486;43.574;1.476;2022-09-21T13:12:00;5.75;;;1.92;;
54835;SDS011;43486;43.574;1.476;2022-09-21T13:14:32;7.05;;;2.55;;
54835;SDS011;43486;43.574;1.476;2022-09-21T13:17:00;4.70;;;2.10;;
54835;SDS011;43486;43.574;1.476;2022-09-21T13:19:29;3.13;;;1.13;;
54835;SDS011;43486;43.574;1.476;2022-09-21T13:22:38;3.45;;;1.48;;
54835;SDS011;43486;43.574;1.476;2022-09-21T13:27:56;4.78;;;2.05;;
54835;SDS011;43486;43.574;1.476;2022-09-21T13:49:04;13.77;;;1.30;;
54835;SDS011;43486;43.574;1.476;2022-09-21T13:54:28;6.45;;;1.70;;
54835;SDS011;43486;43.574;1.476;2022-09-21T13:57:03;3.45;;;1.15;;
54835;SDS011;43486;43.574;1.476;2022-09-21T13:59:33;4.93;;;1.42;;
54835;SDS011;43486;43.574;1.476;2022-09-21T14:02:00;2.92;;;1.25;;
54835;SDS011;43486;43.574;1.476;2022-09-21T14:04:28;3.25;;;1.50;;
54835;SDS011;43486;43.574;1.476;2022-09-21T14:06:56;3.55;;;1.40;;
54835;SDS011;43486;43.574;1.476;2022-09-21T14:11:51;1.93;;;1.10;;
54835;SDS011;43486;43.574;1.476;2022-09-21T14:14:31;2.95;;;1.17;;
54835;SDS011;43486;43.574;1.476;2022-09-21T14:17:01;3.42;;;1.15;;
54835;SDS011;43486;43.574;1.476;2022-09-21T14:19:57;2.33;;;1.33;;
54835;SDS011;43486;43.574;1.476;2022-09-21T14:22:30;3.65;;;1.30;;
54835;SDS011;43486;43.574;1.476;2022-09-21T14:25:45;2.15;;;1.20;;
54835;SDS011;43486;43.574;1.476;2022-09-21T14:27:58;3.92;;;1.20;;
54835;SDS011;43486;43.574;1.476;2022-09-21T14:30:24;3.15;;;1.33;;
54835;SDS011;43486;43.574;1.476;2022-09-21T14:33:00;3.17;;;1.30;;
54835;SDS011;43486;43.574;1.476;2022-09-21T14:35:32;3.10;;;1.55;;
54835;SDS011;43486;43.574;1.476;2022-09-21T14:38:06;2.72;;;1.02;;
54835;SDS011;43486;43.574;1.476;2022-09-21T14:40:39;2.38;;;1.20;;
54835;SDS011;43486;43.574;1.476;2022-09-21T14:43:12;7.35;;;2.17;;
54835;SDS011;43486;43.574;1.476;2022-09-21T14:48:57;3.47;;;1.52;;
54835;SDS011;43486;43.574;1.476;2022-09-21T15:00:49;3.63;;;1.40;;
54835;SDS011;43486;43.574;1.476;2022-09-21T15:06:25;3.03;;;1.33;;
54835;SDS011;43486;43.574;1.476;2022-09-21T15:12:07;1.30;;;0.73;;
54835;SDS011;43486;43.574;1.476;2022-09-21T15:14:38;4.85;;;1.40;;
54835;SDS011;43486;43.574;1.476;2022-09-21T15:20:13;4.18;;;1.98;;
54835;SDS011;43486;43.574;1.476;2022-09-21T15:22:43;2.22;;;0.90;;
54835;SDS011;43486;43.574;1.476;2022-09-21T15:25:11;3.08;;;1.75;;
54835;SDS011;43486;43.574;1.476;2022-09-21T15:27:37;4.70;;;1.30;;
54835;SDS011;43486;43.574;1.476;2022-09-21T15:30:15;1.38;;;0.73;;
54835;SDS011;43486;43.574;1.476;2022-09-21T15:32:47;3.05;;;1.13;;
54835;SDS011;43486;43.574;1.476;2022-09-21T15:35:17;1.63;;;1.00;;
54835;SDS011;43486;43.574;1.476;2022-09-21T15:37:43;3.60;;;0.80;;
54835;SDS011;43486;43.574;1.476;2022-09-21T15:40:22;1.10;;;0.88;;
54835;SDS011;43486;43.574;1.476;2022-09-21T15:48:19;4.03;;;1.45;;
54835;SDS011;43486;43.574;1.476;2022-09-21T15:50:47;4.00;;;1.75;;
54835;SDS011;43486;43.574;1.476;2022-09-21T15:53:19;16.52;;;1.70;;
54835;SDS011;43486;43.574;1.476;2022-09-21T15:55:47;3.47;;;0.93;;
54835;SDS011;43486;43.574;1.476;2022-09-21T15:58:32;8.77;;;1.15;;
54835;SDS011;43486;43.574;1.476;2022-09-21T16:01:07;3.17;;;1.25;;
54835;SDS011;43486;43.574;1.476;2022-09-21T16:03:34;1.27;;;0.80;;
54835;SDS011;43486;43.574;1.476;2022-09-21T16:06:00;3.15;;;1.13;;
54835;SDS011;43486;43.574;1.476;2022-09-21T16:08:43;3.67;;;1.10;;
54835;SDS011;43486;43.574;1.476;2022-09-21T16:14:12;3.95;;;1.25;;
54835;SDS011;43486;43.574;1.476;2022-09-21T16:24:58;2.72;;;0.75;;
54835;SDS011;43486;43.574;1.476;2022-09-21T16:27:27;1.60;;;1.05;;
54835;SDS011;43486;43.574;1.476;2022-09-21T16:29:55;3.80;;;1.23;;
54835;SDS011;43486;43.574;1.476;2022-09-21T16:32:31;2.40;;;1.17;;
54835;SDS011;43486;43.574;1.476;2022-09-21T16:35:20;2.70;;;1.10;;
54835;SDS011;43486;43.574;1.476;2022-09-21T16:37:53;3.33;;;0.90;;
54835;SDS011;43486;43.574;1.476;2022-09-21T16:40:22;1.67;;;0.85;;
54835;SDS011;43486;43.574;1.476;2022-09-21T16:42:49;5.30;;;1.10;;
54835;SDS011;43486;43.574;1.476;2022-09-21T16:45:23;10.77;;;1.42;;
54835;SDS011;43486;43.574;1.476;2022-09-21T16:47:50;10.68;;;2.58;;
54835;SDS011;43486;43.574;1.476;2022-09-21T16:50:17;2.92;;;1.33;;
54835;SDS011;43486;43.574;1.476;2022-09-21T16:52:43;6.05;;;1.52;;
54835;SDS011;43486;43.574;1.476;2022-09-21T16:55:12;3.05;;;0.95;;
54835;SDS011;43486;43.574;1.476;2022-09-21T16:57:39;2.88;;;0.95;;
54835;SDS011;43486;43.574;1.476;2022-09-21T17:00:10;1.92;;;1.08;;
54835;SDS011;43486;43.574;1.476;2022-09-21T17:02:36;1.80;;;1.08;;
54835;SDS011;43486;43.574;1.476;2022-09-21T17:05:06;2.70;;;1.20;;
54835;SDS011;43486;43.574;1.476;2022-09-21T17:07:33;14.05;;;2.05;;
54835;SDS011;43486;43.574;1.476;2022-09-21T17:09:58;4.00;;;1.15;;
54835;SDS011;43486;43.574;1.476;2022-09-21T17:12:24;2.85;;;1.58;;
54835;SDS011;43486;43.574;1.476;2022-09-21T17:14:51;1.73;;;0.80;;
54835;SDS011;43486;43.574;1.476;2022-09-21T17:17:18;2.10;;;1.23;;
54835;SDS011;43486;43.574;1.476;2022-09-21T17:19:46;2.08;;;1.08;;
54835;SDS011;43486;43.574;1.476;2022-09-21T17:22:13;6.57;;;1.77;;
54835;SDS011;43486;43.574;1.476;2022-09-21T17:24:42;2.13;;;1.10;;
54835;SDS011;43486;43.574;1.476;2022-09-21T17:27:09;8.80;;;2.00;;
54835;SDS011;43486;43.574;1.476;2022-09-21T17:29:36;1.95;;;1.00;;
54835;SDS011;43486;43.574;1.476;2022-09-21T17:32:04;8.07;;;1.42;;
54835;SDS011;43486;43.574;1.476;2022-09-21T17:34:34;5.30;;;1.25;;
54835;SDS011;43486;43.574;1.476;2022-09-21T17:37:00;7.45;;;1.20;;
54835;SDS011;43486;43.574;1.476;2022-09-21T17:39:25;5.88;;;1.45;;
54835;SDS011;43486;43.574;1.476;2022-09-21T17:41:52;1.52;;;0.93;;
54835;SDS011;43486;43.574;1.476;2022-09-21T17:47:12;2.08;;;1.15;;
54835;SDS011;43486;43.574;1.476;2022-09-21T17:49:44;19.85;;;2.90;;
54835;SDS011;43486;43.574;1.476;2022-09-21T17:52:13;7.80;;;2.97;;
54835;SDS011;43486;43.574;1.476;2022-09-21T17:54:58;5.90;;;2.20;;
54835;SDS011;43486;43.574;1.476;2022-09-21T17:58:07;4.72;;;2.90;;
54835;SDS011;43486;43.574;1.476;2022-09-21T18:00:44;5.97;;;2.90;;
54835;SDS011;43486;43.574;1.476;2022-09-21T18:03:21;9.02;;;1.75;;
54835;SDS011;43486;43.574;1.476;2022-09-21T18:05:48;7.53;;;3.28;;
54835;SDS011;43486;43.574;1.476;2022-09-21T18:08:15;19.10;;;3.63;;
54835;SDS011;43486;43.574;1.476;2022-09-21T18:10:43;10.15;;;3.08;;
54835;SDS011;43486;43.574;1.476;2022-09-21T18:19:11;6.80;;;2.85;;
54835;SDS011;43486;43.574;1.476;2022-09-21T18:21:45;6.57;;;2.63;;
54835;SDS011;43486;43.574;1.476;2022-09-21T18:26:51;16.08;;;4.38;;
54835;SDS011;43486;43.574;1.476;2022-09-21T18:29:22;7.28;;;3.42;;
54835;SDS011;43486;43.574;1.476;2022-09-21T18:34:21;9.20;;;4.30;;
54835;SDS011;43486;43.574;1.476;2022-09-21T18:39:41;8.38;;;4.05;;